Forside
METAR-TAF:

METAR-TAF

Lufthavne :

Appleton, Wisconsin, USA

Breddekreds: 44-15N, længdekreds: 088-31W, højde: 280 m

Aktuelle vejr

Denne rapport blev lavet for 21 minutter siden, kl. 09:55 UTC
Vind 4 kt fra vest
Temperatur -1°C
Fugtighed 86%
Tryk 1006 hPa
Sigt: 16.1 km
Overskyet i en højde af 900 ft

METAR: KATW 190955Z AUTO 28004KT 10SM OVC009 M01/M03 A2972 RMK AO2

Tid: 04:16 (10:16 UTC)

Vejrudsigter

Denne rapport blev lavet for 4 timer og 56 minutter siden, kl. 05:20 UTC
Foreløbig gælder fra 19 på 06 UTC til 20 på 06 UTC
Vind 4 kt fra varierende retninger
Sigt: 10 km
Overskyet i en højde af 1500 ft
Fra 19 på 0800 UTC
Vind 3 kt fra varierende retninger
Sigt: 9.7 km
Overskyet i en højde af 1700 ft
dis
Fra 19 på 1600 UTC
Vind 4 kt fra varierende retninger
Sigt: 10 km
Overskyet i en højde af 2000 ft
Fra 20 på 0500 UTC
Vind 4 kt fra vest
Sigt: 8.0 km
Overskyet i en højde af 1500 ft
dis

TAF: KATW 190520Z 1906/2006 VRB04KT P6SM OVC015 FM190800 VRB03KT 6SM BR OVC017 FM191600 VRB04KT P6SM OVC020 FM200500 26004KT 5SM BR OVC015

Vejrobservationer og prognoser fra mere end 4000 lufthavne (METAR og TAF).

De gule og røde prikker repræsenterer de meteorologiske stationer.

Flyt musen over at se navnet på stationen.

Så klik over at se vejr observationer og prognoser.

At skifte det kort: Klik på de grønne knapper med et sort kors for at zoome ind; på den grønne knap med en bindestreg for at zoome ud; eller på de grønne pile for tilstødende kort.


METAR-TAF: